createdAt,value
2023-01-10T00:02:19.962Z,4.03
2023-01-10T00:04:47.326Z,4.03
2023-01-10T00:07:14.732Z,3.90
2023-01-10T00:09:41.969Z,4.53
2023-01-10T00:12:28.099Z,4.25
2023-01-10T00:17:22.451Z,4.03
2023-01-10T00:19:49.590Z,3.97
2023-01-10T00:22:19.524Z,3.80
2023-01-10T00:24:46.691Z,3.95
2023-01-10T00:27:17.158Z,3.50
2023-01-10T00:29:44.542Z,3.53
2023-01-10T00:32:11.672Z,3.50
2023-01-10T00:34:38.870Z,3.67
2023-01-10T00:37:05.984Z,4.03
2023-01-10T00:39:33.133Z,3.80
2023-01-10T00:42:18.806Z,3.70
2023-01-10T00:44:46.944Z,3.60
2023-01-10T00:47:15.183Z,4.07
2023-01-10T00:49:42.484Z,3.58
2023-01-10T00:52:09.705Z,3.42
2023-01-10T00:54:36.848Z,4.05
2023-01-10T00:57:04.070Z,3.63
2023-01-10T00:59:31.294Z,3.65
2023-01-10T01:01:58.548Z,3.55
2023-01-10T01:04:25.748Z,3.15
2023-01-10T01:06:53.044Z,3.85
2023-01-10T01:09:20.262Z,3.22
2023-01-10T01:11:47.772Z,3.63
2023-01-10T01:14:15.019Z,3.30
2023-01-10T01:16:42.207Z,3.10
2023-01-10T01:19:09.399Z,2.97
2023-01-10T01:21:36.559Z,3.10
2023-01-10T01:24:03.782Z,3.30
2023-01-10T01:26:30.990Z,3.17
2023-01-10T01:28:58.120Z,3.50
2023-01-10T01:31:25.380Z,3.40
2023-01-10T01:33:52.702Z,3.03
2023-01-10T01:36:20.200Z,3.05
2023-01-10T01:38:47.299Z,3.25
2023-01-10T01:41:33.776Z,3.08
2023-01-10T01:44:07.921Z,3.20
2023-01-10T01:46:37.712Z,3.22
2023-01-10T01:49:06.924Z,2.80
2023-01-10T01:51:34.406Z,3.17
2023-01-10T01:54:03.663Z,3.08
2023-01-10T01:56:30.855Z,3.13
2023-01-10T01:59:03.430Z,3.17
2023-01-10T02:01:31.031Z,2.88
2023-01-10T02:04:10.008Z,2.60
2023-01-10T02:06:37.499Z,2.80
2023-01-10T02:09:09.705Z,3.00
2023-01-10T02:11:36.908Z,3.10
2023-01-10T02:14:06.306Z,2.85
2023-01-10T02:16:33.484Z,3.03
2023-01-10T02:19:00.880Z,3.20
2023-01-10T02:21:37.181Z,2.78
2023-01-10T02:24:12.143Z,2.80
2023-01-10T02:26:58.249Z,2.67
2023-01-10T02:29:31.483Z,2.55
2023-01-10T02:31:58.620Z,2.67
2023-01-10T02:34:32.934Z,3.03
2023-01-10T02:37:05.997Z,2.70
2023-01-10T02:39:42.191Z,2.95
2023-01-10T02:42:10.462Z,3.00
2023-01-10T02:44:51.014Z,2.70
2023-01-10T02:47:18.176Z,2.65
2023-01-10T02:49:46.447Z,2.70
2023-01-10T02:52:15.923Z,2.40
2023-01-10T02:54:43.296Z,3.60
2023-01-10T02:57:16.248Z,3.03
2023-01-10T02:59:43.458Z,2.42
2023-01-10T03:02:13.629Z,2.60
2023-01-10T03:04:48.742Z,3.05
2023-01-10T03:07:19.142Z,2.50
2023-01-10T03:09:59.282Z,2.60
2023-01-10T03:12:32.825Z,3.00
2023-01-10T03:15:00.438Z,2.80
2023-01-10T03:17:28.871Z,2.60
2023-01-10T03:19:58.666Z,2.80
2023-01-10T03:22:27.129Z,2.40
2023-01-10T03:24:55.934Z,2.85
2023-01-10T03:27:27.118Z,2.83
2023-01-10T03:30:13.458Z,2.65
2023-01-10T03:35:08.341Z,2.60
2023-01-10T03:37:38.631Z,2.50
2023-01-10T03:40:05.812Z,2.55
2023-01-10T03:42:52.891Z,2.33
2023-01-10T03:45:22.466Z,2.40
2023-01-10T03:47:52.409Z,2.42
2023-01-10T03:50:21.868Z,2.72
2023-01-10T03:52:49.125Z,2.50
2023-01-10T03:55:19.620Z,2.53
2023-01-10T03:57:47.418Z,2.88
2023-01-10T04:00:15.330Z,2.30
2023-01-10T04:02:42.978Z,2.40
2023-01-10T04:05:10.345Z,2.50
2023-01-10T04:07:37.544Z,2.22
2023-01-10T04:10:05.403Z,2.38
2023-01-10T04:12:32.591Z,2.35
2023-01-10T04:14:59.786Z,2.40
2023-01-10T04:17:26.943Z,2.17
2023-01-10T04:19:54.512Z,2.60
2023-01-10T04:22:21.686Z,2.63
2023-01-10T04:24:51.178Z,2.35
2023-01-10T04:27:18.768Z,2.17
2023-01-10T04:29:46.055Z,2.30
2023-01-10T04:32:13.434Z,2.42
2023-01-10T04:34:40.688Z,2.33
2023-01-10T04:37:07.895Z,2.40
2023-01-10T04:39:35.073Z,2.40
2023-01-10T04:42:02.200Z,2.50
2023-01-10T04:44:29.439Z,2.42
2023-01-10T04:46:56.605Z,2.28
2023-01-10T04:49:23.872Z,2.58
2023-01-10T04:51:51.038Z,2.30
2023-01-10T04:54:21.009Z,2.10
2023-01-10T04:56:48.641Z,2.55
2023-01-10T04:59:16.227Z,2.70
2023-01-10T05:01:43.533Z,2.10
2023-01-10T05:04:10.793Z,2.63
2023-01-10T05:06:40.185Z,2.10
2023-01-10T05:09:07.964Z,2.42
2023-01-10T05:11:35.152Z,2.10
2023-01-10T05:14:02.361Z,2.25
2023-01-10T05:16:30.064Z,2.30
2023-01-10T05:18:57.255Z,2.55
2023-01-10T05:21:24.452Z,2.33
2023-01-10T05:23:51.589Z,2.30
2023-01-10T05:26:20.422Z,2.42
2023-01-10T05:28:47.633Z,2.00
2023-01-10T05:31:16.437Z,2.50
2023-01-10T05:33:50.473Z,2.40
2023-01-10T05:36:18.569Z,2.30
2023-01-10T05:38:45.845Z,2.63
2023-01-10T05:41:13.101Z,2.20
2023-01-10T05:43:40.264Z,2.20
2023-01-10T05:46:07.490Z,2.00
2023-01-10T05:48:34.743Z,2.17
2023-01-10T05:51:01.981Z,2.30
2023-01-10T05:53:29.158Z,2.28
2023-01-10T05:55:57.793Z,2.35
2023-01-10T05:58:25.361Z,2.20
2023-01-10T06:00:52.943Z,2.60
2023-01-10T06:03:20.191Z,2.40
2023-01-10T06:05:48.899Z,2.50
2023-01-10T06:08:16.491Z,1.88
2023-01-10T06:10:44.056Z,3.35
2023-01-10T06:13:12.274Z,2.65
2023-01-10T06:15:39.668Z,2.42
2023-01-10T06:18:07.341Z,2.70
2023-01-10T06:20:34.452Z,4.05
2023-01-10T06:23:04.654Z,3.92
2023-01-10T06:25:33.485Z,3.75
2023-01-10T06:28:00.723Z,3.67
2023-01-10T06:30:27.961Z,3.45
2023-01-10T06:32:55.176Z,4.10
2023-01-10T06:35:22.348Z,3.60
2023-01-10T06:37:49.535Z,4.22
2023-01-10T06:40:16.931Z,3.85
2023-01-10T06:42:46.444Z,4.22
2023-01-10T06:45:13.679Z,4.53
2023-01-10T06:47:40.849Z,3.88
2023-01-10T06:50:08.296Z,3.80
2023-01-10T06:52:35.656Z,3.92
2023-01-10T06:55:02.838Z,4.50
2023-01-10T06:57:29.926Z,4.32
2023-01-10T06:59:57.119Z,4.03
2023-01-10T07:02:24.339Z,4.47
2023-01-10T07:04:51.604Z,4.22
2023-01-10T07:07:18.936Z,5.18
2023-01-10T07:09:46.381Z,4.60
2023-01-10T07:12:13.523Z,3.90
2023-01-10T07:14:40.720Z,4.10
2023-01-10T07:17:07.966Z,4.63
2023-01-10T07:19:35.201Z,4.45
2023-01-10T07:22:02.411Z,4.32
2023-01-10T07:24:29.557Z,4.15
2023-01-10T07:26:56.804Z,4.45
2023-01-10T07:29:24.015Z,4.60
2023-01-10T07:31:51.256Z,5.43
2023-01-10T07:34:18.563Z,4.57
2023-01-10T07:36:45.794Z,4.72
2023-01-10T07:39:12.996Z,4.55
2023-01-10T07:41:40.188Z,4.47
2023-01-10T07:44:07.380Z,4.07
2023-01-10T07:46:37.473Z,4.65
2023-01-10T07:49:04.679Z,4.55
2023-01-10T07:51:31.860Z,5.82
2023-01-10T07:53:59.106Z,6.07
2023-01-10T07:56:26.348Z,5.07
2023-01-10T07:58:53.524Z,4.88
2023-01-10T08:01:22.238Z,4.28
2023-01-10T08:03:49.468Z,4.63
2023-01-10T08:06:16.945Z,4.80
2023-01-10T08:08:44.151Z,4.95
2023-01-10T08:11:11.309Z,4.75
2023-01-10T08:13:38.547Z,4.47
2023-01-10T08:16:06.564Z,4.78
2023-01-10T08:18:34.070Z,3.97
2023-01-10T08:21:02.746Z,4.28
2023-01-10T08:23:30.154Z,4.80
2023-01-10T08:25:58.961Z,5.15
2023-01-10T08:28:26.509Z,5.00
2023-01-10T08:30:56.007Z,4.95
2023-01-10T08:33:23.864Z,4.82
2023-01-10T08:35:51.315Z,4.47
2023-01-10T08:38:18.480Z,6.78
2023-01-10T08:40:45.737Z,6.85
2023-01-10T08:43:13.713Z,6.78
2023-01-10T08:45:40.981Z,6.82
2023-01-10T08:48:09.493Z,5.78
2023-01-10T08:50:37.000Z,6.13
2023-01-10T08:53:04.732Z,7.00
2023-01-10T08:55:32.064Z,8.27
2023-01-10T08:58:03.063Z,8.63
2023-01-10T09:00:30.580Z,10.02
2023-01-10T09:02:57.874Z,7.50
2023-01-10T09:05:27.748Z,6.28
2023-01-10T09:08:00.096Z,5.40
2023-01-10T09:10:27.724Z,5.43
2023-01-10T09:12:56.683Z,4.88
2023-01-10T09:15:24.861Z,5.43
2023-01-10T09:17:58.960Z,5.18
2023-01-10T09:20:26.512Z,4.95
2023-01-10T09:22:53.950Z,5.28
2023-01-10T09:25:22.654Z,5.57
2023-01-10T09:27:56.881Z,5.70
2023-01-10T09:30:25.239Z,5.90
2023-01-10T09:32:53.152Z,5.20
2023-01-10T09:35:20.386Z,5.32
2023-01-10T09:37:47.576Z,5.53
2023-01-10T09:40:16.741Z,5.03
2023-01-10T09:42:50.165Z,5.38
2023-01-10T09:45:20.397Z,4.50
2023-01-10T09:48:00.931Z,5.95
2023-01-10T09:50:28.334Z,4.63
2023-01-10T09:53:03.316Z,4.95
2023-01-10T09:55:35.097Z,5.18
2023-01-10T09:58:04.908Z,4.82
2023-01-10T10:00:37.100Z,4.70
2023-01-10T10:03:12.601Z,4.45
2023-01-10T10:05:40.310Z,4.68
2023-01-10T10:08:16.278Z,4.15
2023-01-10T10:10:52.687Z,4.60
2023-01-10T10:13:28.584Z,4.70
2023-01-10T10:16:10.284Z,4.30
2023-01-10T10:18:56.550Z,4.93
2023-01-10T10:24:01.382Z,5.85
2023-01-10T10:26:43.945Z,6.30
2023-01-10T10:29:34.170Z,5.07
2023-01-10T10:32:01.424Z,5.43
2023-01-10T10:34:38.223Z,4.72
2023-01-10T10:37:11.329Z,5.53
2023-01-10T10:39:42.763Z,5.25
2023-01-10T10:42:14.215Z,7.72
2023-01-10T10:44:44.509Z,20.88
2023-01-10T10:47:16.413Z,9.48
2023-01-10T10:50:00.412Z,8.85
2023-01-10T10:52:32.306Z,9.48
2023-01-10T10:55:00.378Z,11.27
2023-01-10T10:57:32.510Z,10.65
2023-01-10T11:00:00.882Z,10.18
2023-01-10T11:02:29.123Z,11.82
2023-01-10T11:04:58.436Z,10.02
2023-01-10T11:07:27.646Z,10.57
2023-01-10T11:10:14.187Z,9.77
2023-01-10T11:12:45.220Z,9.05
2023-01-10T11:15:12.435Z,8.98
2023-01-10T11:17:44.075Z,8.98
2023-01-10T11:20:16.539Z,10.70
2023-01-10T11:22:48.888Z,11.88
2023-01-10T11:25:20.237Z,12.20
2023-01-10T11:27:50.700Z,12.18
2023-01-10T11:30:26.256Z,10.75
2023-01-10T11:32:58.080Z,10.50
2023-01-10T11:35:32.693Z,11.15
2023-01-10T11:38:15.313Z,10.25
2023-01-10T11:40:53.803Z,9.13
2023-01-10T11:43:37.468Z,9.70
2023-01-10T11:46:36.916Z,9.30
2023-01-10T11:49:08.134Z,10.13
2023-01-10T11:51:38.424Z,8.95
2023-01-10T11:54:11.939Z,8.98
2023-01-10T11:56:41.652Z,8.00
2023-01-10T11:59:13.067Z,8.18
2023-01-10T12:01:42.170Z,8.57
2023-01-10T12:04:15.615Z,9.23
2023-01-10T12:06:47.287Z,7.68
2023-01-10T12:09:33.292Z,7.93
2023-01-10T12:12:04.567Z,15.93
2023-01-10T12:14:31.827Z,46.80
2023-01-10T12:16:59.749Z,67.75
2023-01-10T15:08:31.921Z,29.80
2023-01-10T15:11:06.830Z,29.98
2023-01-10T15:13:37.772Z,28.23
2023-01-10T15:16:05.671Z,28.30
2023-01-10T15:18:36.260Z,28.77
2023-01-10T15:21:03.588Z,28.45
2023-01-10T15:23:34.788Z,27.77
2023-01-10T15:26:03.703Z,28.88
2023-01-10T15:28:31.283Z,27.58
2023-01-10T15:30:59.734Z,26.75
2023-01-10T15:33:29.325Z,27.73
2023-01-10T15:36:14.908Z,26.73
2023-01-10T15:38:46.393Z,26.65
2023-01-10T15:41:18.599Z,25.75
2023-01-10T15:43:46.543Z,25.77
2023-01-10T15:46:21.618Z,25.15
2023-01-10T15:49:01.384Z,25.65
2023-01-10T15:51:29.285Z,23.77
2023-01-10T15:54:04.019Z,25.23
2023-01-10T15:56:31.344Z,24.83
2023-01-10T15:58:59.879Z,24.02
2023-01-10T16:01:28.920Z,24.73
2023-01-10T16:04:01.397Z,24.25
2023-01-10T16:06:28.570Z,24.45
2023-01-10T16:08:56.774Z,23.00
2023-01-10T16:11:43.861Z,23.58
2023-01-10T16:14:10.986Z,22.80
2023-01-10T16:16:38.560Z,23.20
2023-01-10T16:19:05.753Z,22.48
2023-01-10T16:21:40.010Z,22.42
2023-01-10T16:24:10.775Z,23.13
2023-01-10T16:26:38.104Z,21.88
2023-01-10T16:29:05.355Z,22.73
2023-01-10T16:31:32.563Z,21.75
2023-01-10T16:33:59.773Z,22.80
2023-01-10T16:36:26.981Z,22.33
2023-01-10T16:38:54.199Z,22.17
2023-01-10T16:41:40.195Z,22.08
2023-01-10T16:44:07.354Z,21.27
2023-01-10T16:46:34.547Z,21.23
2023-01-10T16:49:01.757Z,20.88
2023-01-10T16:51:30.370Z,19.95
2023-01-10T16:53:57.609Z,20.10
2023-01-10T16:56:25.844Z,19.63
2023-01-10T16:58:53.747Z,20.60
2023-01-10T17:01:25.729Z,19.58
2023-01-10T17:03:53.306Z,19.60
2023-01-10T17:06:20.837Z,19.77
2023-01-10T17:08:49.565Z,19.25
2023-01-10T17:11:19.775Z,19.05
2023-01-10T17:13:47.395Z,19.52
2023-01-10T17:16:19.299Z,17.77
2023-01-10T17:18:46.794Z,18.02
2023-01-10T17:21:18.153Z,17.77
2023-01-10T17:23:45.554Z,18.10
2023-01-10T17:26:14.004Z,18.75
2023-01-10T17:28:41.667Z,17.42
2023-01-10T17:31:09.498Z,17.17
2023-01-10T17:33:37.015Z,16.23
2023-01-10T17:36:04.669Z,17.50
2023-01-10T17:38:32.015Z,17.13
2023-01-10T17:41:02.878Z,17.67
2023-01-10T17:43:30.590Z,16.33
2023-01-10T17:45:58.971Z,16.55
2023-01-10T17:48:26.588Z,16.58
2023-01-10T17:50:58.230Z,15.65
2023-01-10T17:53:25.719Z,16.52
2023-01-10T17:55:53.032Z,16.00
2023-01-10T17:58:20.590Z,15.57
2023-01-10T18:00:48.824Z,15.23
2023-01-10T18:03:16.656Z,15.95
2023-01-10T18:05:50.591Z,15.20
2023-01-10T18:08:17.934Z,16.25
2023-01-10T18:10:45.122Z,15.70
2023-01-10T18:13:12.798Z,15.27
2023-01-10T18:15:44.657Z,15.13
2023-01-10T18:18:12.820Z,15.65
2023-01-10T18:20:43.389Z,15.27
2023-01-10T18:23:24.902Z,15.40
2023-01-10T18:25:53.032Z,13.60
2023-01-10T18:28:31.931Z,15.07
2023-01-10T18:31:07.495Z,14.75
2023-01-10T18:33:34.873Z,14.15
2023-01-10T18:36:06.029Z,14.98
2023-01-10T18:38:33.927Z,14.43
2023-01-10T18:41:01.106Z,14.57
2023-01-10T18:43:29.816Z,12.48
2023-01-10T18:46:04.494Z,13.68
2023-01-10T18:48:31.936Z,13.45
2023-01-10T18:50:59.868Z,12.82
2023-01-10T18:53:27.573Z,13.48
2023-01-10T18:55:55.786Z,13.10
2023-01-10T18:58:24.250Z,13.32
2023-01-10T19:00:51.498Z,12.55
2023-01-10T19:03:18.642Z,12.85
2023-01-10T19:05:45.959Z,12.20
2023-01-10T19:08:13.908Z,12.35
2023-01-10T19:11:07.202Z,13.30
2023-01-10T19:13:30.709Z,11.82
2023-01-10T19:16:09.978Z,13.07
2023-01-10T19:18:37.201Z,12.90
2023-01-10T19:21:04.625Z,12.23
2023-01-10T19:23:31.859Z,12.07
2023-01-10T19:25:59.082Z,11.68
2023-01-10T19:28:29.792Z,12.35
2023-01-10T19:31:04.077Z,12.23
2023-01-10T19:33:32.863Z,12.57
2023-01-10T19:36:00.040Z,11.48
2023-01-10T19:38:27.169Z,13.40
2023-01-10T19:40:56.418Z,12.02
2023-01-10T19:43:24.954Z,11.77
2023-01-10T19:45:53.407Z,11.07
2023-01-10T19:48:20.632Z,11.50
2023-01-10T19:50:47.808Z,11.68
2023-01-10T19:53:15.000Z,11.25
2023-01-10T19:55:42.197Z,11.25
2023-01-10T19:58:09.455Z,10.82
2023-01-10T20:00:36.637Z,11.48
2023-01-10T20:03:05.221Z,10.55
2023-01-10T20:05:34.625Z,10.57
2023-01-10T20:08:03.363Z,11.60
2023-01-10T20:10:30.529Z,11.13
2023-01-10T20:12:57.717Z,11.60
2023-01-10T20:15:24.945Z,11.02
2023-01-10T20:17:52.046Z,10.73
2023-01-10T20:20:20.645Z,10.23
2023-01-10T20:22:48.376Z,11.43
2023-01-10T20:25:15.558Z,10.80
2023-01-10T20:27:42.720Z,10.95
2023-01-10T20:30:13.819Z,10.48
2023-01-10T20:32:41.089Z,10.20
2023-01-10T20:35:08.367Z,9.73
2023-01-10T20:37:35.526Z,9.93
2023-01-10T20:40:03.250Z,10.35
2023-01-10T20:42:30.400Z,10.70
2023-01-10T20:44:57.609Z,10.07
2023-01-10T20:47:26.754Z,10.57
2023-01-10T20:49:53.927Z,9.75
2023-01-10T20:52:21.095Z,10.43
2023-01-10T20:54:48.252Z,9.88
2023-01-10T20:57:15.437Z,9.77
2023-01-10T20:59:42.565Z,9.68
2023-01-10T21:02:11.541Z,10.32
2023-01-10T21:04:39.870Z,10.50
2023-01-10T21:07:07.217Z,9.73
2023-01-10T21:09:34.591Z,9.80
2023-01-10T21:12:13.889Z,9.63
2023-01-10T21:14:45.119Z,9.60
2023-01-10T21:17:12.426Z,9.98
2023-01-10T21:19:39.556Z,10.75
2023-01-10T21:22:06.733Z,9.20
2023-01-10T21:24:33.874Z,10.43
2023-01-10T21:27:01.043Z,10.07
2023-01-10T21:29:28.414Z,9.63
2023-01-10T21:31:55.558Z,9.63
2023-01-10T21:34:22.801Z,9.93
2023-01-10T21:36:50.040Z,9.50
2023-01-10T21:39:18.203Z,8.85
2023-01-10T21:42:04.320Z,9.70
2023-01-10T21:44:31.672Z,9.85
2023-01-10T21:46:58.927Z,8.93
2023-01-10T21:49:26.089Z,9.80
2023-01-10T21:51:53.279Z,9.20
2023-01-10T21:54:20.585Z,9.73
2023-01-10T21:56:47.760Z,9.95
2023-01-10T21:59:15.090Z,10.00
2023-01-10T22:01:42.238Z,9.38
2023-01-10T22:04:09.515Z,10.00
2023-01-10T22:06:36.745Z,9.88
2023-01-10T22:09:04.079Z,9.88
2023-01-10T22:11:31.282Z,9.43
2023-01-10T22:13:58.551Z,9.52
2023-01-10T22:16:25.794Z,9.55
2023-01-10T22:18:52.965Z,8.65
2023-01-10T22:21:20.174Z,9.18
2023-01-10T22:23:47.372Z,9.85
2023-01-10T22:26:15.429Z,8.27
2023-01-10T22:28:42.930Z,8.82
2023-01-10T22:31:10.156Z,8.85
2023-01-10T22:33:38.279Z,8.10
2023-01-10T22:36:06.920Z,7.85
2023-01-10T22:38:34.234Z,9.20
2023-01-10T22:41:20.463Z,8.80
2023-01-10T22:43:47.987Z,8.23
2023-01-10T22:46:18.491Z,8.23
2023-01-10T22:48:45.915Z,7.75
2023-01-10T22:51:13.900Z,8.13
2023-01-10T22:53:41.045Z,8.35
2023-01-10T22:56:10.536Z,8.57
2023-01-10T22:58:38.289Z,7.97
2023-01-10T23:01:05.858Z,8.23
2023-01-10T23:03:33.439Z,8.27
2023-01-10T23:06:00.916Z,7.35
2023-01-10T23:08:28.433Z,8.45
2023-01-10T23:10:55.617Z,8.25
2023-01-10T23:13:24.826Z,8.30
2023-01-10T23:15:58.294Z,7.88
2023-01-10T23:18:26.005Z,7.07
2023-01-10T23:20:53.323Z,7.47
2023-01-10T23:23:20.461Z,7.75
2023-01-10T23:26:01.272Z,7.30
2023-01-10T23:28:39.815Z,7.18
2023-01-10T23:31:07.747Z,7.18
2023-01-10T23:33:35.174Z,7.68
2023-01-10T23:36:02.474Z,7.03
2023-01-10T23:38:29.741Z,7.03
2023-01-10T23:40:56.967Z,6.82
2023-01-10T23:43:24.888Z,7.47
2023-01-10T23:45:52.358Z,6.50
2023-01-10T23:48:19.690Z,6.82
2023-01-10T23:50:48.080Z,7.45
2023-01-10T23:53:15.417Z,6.78
2023-01-10T23:55:42.703Z,6.30
2023-01-10T23:58:09.991Z,7.05
